sensor_id;sensor_type;location;lat;lon;timestamp;pressure;altitude;pressure_sealevel;temperature;humidity
52591;BME280;38483;42.620;25.394;2022-12-28T00:01:26;97865.13;;;11.60;44.39
52591;BME280;38483;42.620;25.394;2022-12-28T00:03:54;97881.53;;;11.61;44.83
52591;BME280;38483;42.620;25.394;2022-12-28T00:06:22;97878.84;;;11.64;44.68
52591;BME280;38483;42.620;25.394;2022-12-28T00:08:54;97885.69;;;11.66;43.71
52591;BME280;38483;42.620;25.394;2022-12-28T00:11:23;97881.44;;;11.64;43.95
52591;BME280;38483;42.620;25.394;2022-12-28T00:14:00;97891.63;;;11.70;44.31
52591;BME280;38483;42.620;25.394;2022-12-28T00:16:35;97885.75;;;11.63;43.90
52591;BME280;38483;42.620;25.394;2022-12-28T00:19:05;97878.09;;;11.60;44.09
52591;BME280;38483;42.620;25.394;2022-12-28T00:21:33;97876.34;;;11.61;44.06
52591;BME280;38483;42.620;25.394;2022-12-28T00:24:00;97880.63;;;11.62;43.58
52591;BME280;38483;42.620;25.394;2022-12-28T00:26:29;97882.38;;;11.61;44.00
52591;BME280;38483;42.620;25.394;2022-12-28T00:28:57;97884.88;;;11.64;43.51
52591;BME280;38483;42.620;25.394;2022-12-28T00:31:31;97896.06;;;11.66;43.50
52591;BME280;38483;42.620;25.394;2022-12-28T00:33:58;97890.00;;;11.66;43.68
52591;BME280;38483;42.620;25.394;2022-12-28T00:36:25;97896.91;;;11.67;43.76
52591;BME280;38483;42.620;25.394;2022-12-28T00:39:12;97890.88;;;11.66;43.63
52591;BME280;38483;42.620;25.394;2022-12-28T00:41:39;97897.94;;;11.61;43.75
52591;BME280;38483;42.620;25.394;2022-12-28T00:44:07;97906.56;;;11.62;43.83
52591;BME280;38483;42.620;25.394;2022-12-28T00:46:34;97898.78;;;11.62;43.38
52591;BME280;38483;42.620;25.394;2022-12-28T00:49:01;97901.56;;;11.57;43.64
52591;BME280;38483;42.620;25.394;2022-12-28T00:51:29;97910.84;;;11.63;44.50
52591;BME280;38483;42.620;25.394;2022-12-28T00:53:55;97900.47;;;11.63;43.93
52591;BME280;38483;42.620;25.394;2022-12-28T00:56:22;97895.56;;;11.55;44.34
52591;BME280;38483;42.620;25.394;2022-12-28T00:58:54;97887.88;;;11.52;44.88
52591;BME280;38483;42.620;25.394;2022-12-28T01:01:22;97895.28;;;11.39;45.29
52591;BME280;38483;42.620;25.394;2022-12-28T01:03:49;97903.00;;;11.41;45.48
52591;BME280;38483;42.620;25.394;2022-12-28T01:06:18;97895.31;;;11.38;45.88
52591;BME280;38483;42.620;25.394;2022-12-28T01:08:45;97872.13;;;11.33;45.50
52591;BME280;38483;42.620;25.394;2022-12-28T01:13:45;97871.41;;;11.30;46.31
52591;BME280;38483;42.620;25.394;2022-12-28T01:18:41;97886.22;;;11.26;46.41
52591;BME280;38483;42.620;25.394;2022-12-28T01:21:13;97883.72;;;11.23;46.28
52591;BME280;38483;42.620;25.394;2022-12-28T01:23:42;97898.72;;;11.15;46.88
52591;BME280;38483;42.620;25.394;2022-12-28T01:26:09;97870.47;;;11.08;46.93
52591;BME280;38483;42.620;25.394;2022-12-28T01:28:37;97868.72;;;11.08;47.74
52591;BME280;38483;42.620;25.394;2022-12-28T01:31:06;97884.16;;;11.11;47.46
52591;BME280;38483;42.620;25.394;2022-12-28T01:33:34;97877.38;;;11.07;47.76
52591;BME280;38483;42.620;25.394;2022-12-28T01:36:14;97888.88;;;11.00;48.24
52591;BME280;38483;42.620;25.394;2022-12-28T01:38:43;97893.22;;;11.00;47.96
52591;BME280;38483;42.620;25.394;2022-12-28T01:41:13;97898.47;;;10.97;48.52
52591;BME280;38483;42.620;25.394;2022-12-28T01:44:32;97912.38;;;10.94;48.94
52591;BME280;38483;42.620;25.394;2022-12-28T01:46:59;97912.72;;;10.85;50.10
52591;BME280;38483;42.620;25.394;2022-12-28T01:54:42;97901.03;;;10.72;51.27
52591;BME280;38483;42.620;25.394;2022-12-28T01:57:13;97897.84;;;10.64;50.77
52591;BME280;38483;42.620;25.394;2022-12-28T01:59:43;97884.03;;;10.65;49.92
52591;BME280;38483;42.620;25.394;2022-12-28T02:02:13;97907.94;;;10.72;50.05
52591;BME280;38483;42.620;25.394;2022-12-28T02:04:41;97882.63;;;10.55;50.76
52591;BME280;38483;42.620;25.394;2022-12-28T02:07:12;97891.41;;;10.49;51.15
52591;BME280;38483;42.620;25.394;2022-12-28T02:09:42;97887.19;;;10.47;51.44
52591;BME280;38483;42.620;25.394;2022-12-28T02:12:29;97884.94;;;10.36;51.28
52591;BME280;38483;42.620;25.394;2022-12-28T02:14:57;97858.06;;;10.13;51.27
52591;BME280;38483;42.620;25.394;2022-12-28T02:17:25;97887.69;;;10.32;51.65
52591;BME280;38483;42.620;25.394;2022-12-28T02:19:52;97872.56;;;10.18;51.76
52591;BME280;38483;42.620;25.394;2022-12-28T02:22:51;97916.03;;;10.36;52.79
52591;BME280;38483;42.620;25.394;2022-12-28T02:26:01;97921.59;;;10.23;53.40
52591;BME280;38483;42.620;25.394;2022-12-28T02:28:53;97914.03;;;10.17;54.00
52591;BME280;38483;42.620;25.394;2022-12-28T02:34:07;97893.66;;;10.05;54.40
52591;BME280;38483;42.620;25.394;2022-12-28T02:36:57;97920.53;;;10.01;54.93
52591;BME280;38483;42.620;25.394;2022-12-28T02:39:37;97869.09;;;9.90;55.44
52591;BME280;38483;42.620;25.394;2022-12-28T02:42:07;97900.13;;;9.90;55.64
52591;BME280;38483;42.620;25.394;2022-12-28T02:44:36;97863.56;;;9.73;55.42
52591;BME280;38483;42.620;25.394;2022-12-28T02:47:22;97894.22;;;9.85;55.98
52591;BME280;38483;42.620;25.394;2022-12-28T02:50:10;97902.03;;;9.83;55.56
52591;BME280;38483;42.620;25.394;2022-12-28T02:53:07;97908.81;;;9.88;55.83
52591;BME280;38483;42.620;25.394;2022-12-28T03:07:15;97913.75;;;9.97;54.74
52591;BME280;38483;42.620;25.394;2022-12-28T03:12:47;97918.88;;;9.98;54.35
52591;BME280;38483;42.620;25.394;2022-12-28T03:15:23;97919.72;;;9.99;54.13
52591;BME280;38483;42.620;25.394;2022-12-28T03:18:02;97918.81;;;10.00;54.15
52591;BME280;38483;42.620;25.394;2022-12-28T03:20:51;97907.75;;;9.95;54.04
52591;BME280;38483;42.620;25.394;2022-12-28T03:23:39;97927.44;;;10.00;54.15
52591;BME280;38483;42.620;25.394;2022-12-28T03:26:31;97935.44;;;9.93;54.00
52591;BME280;38483;42.620;25.394;2022-12-28T03:29:20;97933.03;;;9.85;54.13
52591;BME280;38483;42.620;25.394;2022-12-28T03:32:08;97942.59;;;9.83;54.07
52591;BME280;38483;42.620;25.394;2022-12-28T03:34:35;97948.59;;;9.83;53.70
52591;BME280;38483;42.620;25.394;2022-12-28T03:37:20;97926.00;;;9.90;53.03
52591;BME280;38483;42.620;25.394;2022-12-28T03:40:54;97952.69;;;9.92;52.52
52591;BME280;38483;42.620;25.394;2022-12-28T03:43:00;97939.63;;;9.97;50.77
52591;BME280;38483;42.620;25.394;2022-12-28T03:45:55;97931.75;;;10.00;49.41
52591;BME280;38483;42.620;25.394;2022-12-28T03:48:24;97924.09;;;9.97;49.84
52591;BME280;38483;42.620;25.394;2022-12-28T03:50:52;97951.31;;;10.10;49.21
52591;BME280;38483;42.620;25.394;2022-12-28T03:53:24;97948.88;;;10.04;48.98
52591;BME280;38483;42.620;25.394;2022-12-28T03:56:25;97966.91;;;10.07;49.21
52591;BME280;38483;42.620;25.394;2022-12-28T03:58:55;97973.16;;;10.00;49.73
52591;BME280;38483;42.620;25.394;2022-12-28T04:01:30;97957.97;;;9.88;50.22
52591;BME280;38483;42.620;25.394;2022-12-28T04:03:57;97959.72;;;9.87;50.25
52591;BME280;38483;42.620;25.394;2022-12-28T04:06:25;97963.16;;;9.88;50.22
52591;BME280;38483;42.620;25.394;2022-12-28T04:08:53;97959.75;;;9.85;50.29
52591;BME280;38483;42.620;25.394;2022-12-28T04:11:21;97941.81;;;9.79;50.76
52591;BME280;38483;42.620;25.394;2022-12-28T04:13:52;97965.09;;;9.79;51.43
52591;BME280;38483;42.620;25.394;2022-12-28T04:16:20;97960.91;;;9.75;51.72
52591;BME280;38483;42.620;25.394;2022-12-28T04:18:47;97952.47;;;9.69;51.51
52591;BME280;38483;42.620;25.394;2022-12-28T04:21:14;97965.34;;;9.72;51.39
52591;BME280;38483;42.620;25.394;2022-12-28T04:23:43;97984.47;;;9.65;51.86
52591;BME280;38483;42.620;25.394;2022-12-28T04:26:15;97970.03;;;9.58;52.07
52591;BME280;38483;42.620;25.394;2022-12-28T04:28:45;97979.44;;;9.60;52.08
52591;BME280;38483;42.620;25.394;2022-12-28T04:31:20;97977.91;;;9.53;52.37
52591;BME280;38483;42.620;25.394;2022-12-28T04:33:56;97941.41;;;9.33;52.02
52591;BME280;38483;42.620;25.394;2022-12-28T04:36:25;97977.22;;;9.47;52.02
52591;BME280;38483;42.620;25.394;2022-12-28T04:38:53;97949.97;;;9.35;52.11
52591;BME280;38483;42.620;25.394;2022-12-28T04:41:20;97983.28;;;9.46;51.33
52591;BME280;38483;42.620;25.394;2022-12-28T04:43:46;97976.28;;;9.49;51.60
52591;BME280;38483;42.620;25.394;2022-12-28T04:46:15;97993.31;;;9.56;51.29
52591;BME280;38483;42.620;25.394;2022-12-28T04:48:42;97986.53;;;9.52;50.24
52591;BME280;38483;42.620;25.394;2022-12-28T04:51:15;97985.41;;;9.62;50.62
52591;BME280;38483;42.620;25.394;2022-12-28T04:53:42;97988.25;;;9.53;50.79
52591;BME280;38483;42.620;25.394;2022-12-28T04:56:11;97974.31;;;9.59;50.94
52591;BME280;38483;42.620;25.394;2022-12-28T04:58:39;97959.75;;;9.55;49.66
52591;BME280;38483;42.620;25.394;2022-12-28T05:01:11;97956.31;;;9.54;49.43
52591;BME280;38483;42.620;25.394;2022-12-28T05:03:40;97971.59;;;9.63;47.84
52591;BME280;38483;42.620;25.394;2022-12-28T05:06:11;97962.91;;;9.66;46.69
52591;BME280;38483;42.620;25.394;2022-12-28T05:08:39;97970.44;;;9.73;45.81
52591;BME280;38483;42.620;25.394;2022-12-28T05:11:11;97976.38;;;9.78;44.67
52591;BME280;38483;42.620;25.394;2022-12-28T05:13:38;97978.94;;;9.78;44.33
52591;BME280;38483;42.620;25.394;2022-12-28T05:16:10;97977.06;;;9.83;43.17
52591;BME280;38483;42.620;25.394;2022-12-28T05:18:38;97977.75;;;9.90;42.60
52591;BME280;38483;42.620;25.394;2022-12-28T05:21:24;97979.28;;;9.97;41.93
52591;BME280;38483;42.620;25.394;2022-12-28T05:23:52;97976.81;;;9.93;41.68
52591;BME280;38483;42.620;25.394;2022-12-28T05:26:22;97962.06;;;9.96;41.01
52591;BME280;38483;42.620;25.394;2022-12-28T05:28:49;97960.38;;;9.95;40.47
52591;BME280;38483;42.620;25.394;2022-12-28T05:31:19;97966.28;;;9.99;40.35
52591;BME280;38483;42.620;25.394;2022-12-28T05:33:47;97963.88;;;9.93;40.33
52591;BME280;38483;42.620;25.394;2022-12-28T05:36:21;97974.75;;;10.04;39.39
52591;BME280;38483;42.620;25.394;2022-12-28T05:38:49;97977.28;;;10.07;39.65
52591;BME280;38483;42.620;25.394;2022-12-28T05:41:21;97975.63;;;10.04;39.60
52591;BME280;38483;42.620;25.394;2022-12-28T05:43:50;97953.97;;;10.07;39.44
52591;BME280;38483;42.620;25.394;2022-12-28T05:46:19;97973.50;;;10.18;39.28
52591;BME280;38483;42.620;25.394;2022-12-28T05:48:47;97965.91;;;10.12;39.58
52591;BME280;38483;42.620;25.394;2022-12-28T05:51:16;97991.63;;;10.18;40.25
52591;BME280;38483;42.620;25.394;2022-12-28T05:53:44;97994.22;;;10.18;39.71
52591;BME280;38483;42.620;25.394;2022-12-28T05:56:16;97983.66;;;10.26;39.62
52591;BME280;38483;42.620;25.394;2022-12-28T05:58:45;97998.38;;;10.24;39.96
52591;BME280;38483;42.620;25.394;2022-12-28T06:01:18;98008.91;;;10.18;39.56
52591;BME280;38483;42.620;25.394;2022-12-28T06:03:46;97989.53;;;10.00;43.05
52591;BME280;38483;42.620;25.394;2022-12-28T06:06:16;98002.88;;;9.85;44.76
52591;BME280;38483;42.620;25.394;2022-12-28T06:08:45;98001.31;;;9.79;45.36
52591;BME280;38483;42.620;25.394;2022-12-28T06:11:17;98003.03;;;9.80;45.13
52591;BME280;38483;42.620;25.394;2022-12-28T06:13:45;98003.03;;;9.80;45.56
52591;BME280;38483;42.620;25.394;2022-12-28T06:20:18;97980.59;;;9.49;46.93
52591;BME280;38483;42.620;25.394;2022-12-28T06:22:45;98025.69;;;9.72;48.13
52591;BME280;38483;42.620;25.394;2022-12-28T06:25:12;98034.25;;;9.74;49.38
52591;BME280;38483;42.620;25.394;2022-12-28T06:27:39;98036.41;;;9.57;50.49
52591;BME280;38483;42.620;25.394;2022-12-28T06:30:08;98029.91;;;9.43;51.24
52591;BME280;38483;42.620;25.394;2022-12-28T06:32:35;98024.44;;;9.53;51.84
52591;BME280;38483;42.620;25.394;2022-12-28T06:35:02;98039.59;;;9.68;51.92
52591;BME280;38483;42.620;25.394;2022-12-28T06:37:29;98042.44;;;9.58;52.27
52591;BME280;38483;42.620;25.394;2022-12-28T06:39:56;98038.84;;;9.63;52.01
52591;BME280;38483;42.620;25.394;2022-12-28T06:42:23;98054.63;;;9.53;52.72
52591;BME280;38483;42.620;25.394;2022-12-28T06:44:50;98037.09;;;9.30;52.69
52591;BME280;38483;42.620;25.394;2022-12-28T06:47:17;98059.41;;;9.34;52.61
52591;BME280;38483;42.620;25.394;2022-12-28T06:49:44;98059.50;;;9.30;52.95
52591;BME280;38483;42.620;25.394;2022-12-28T06:52:11;98058.41;;;9.40;52.15
52591;BME280;38483;42.620;25.394;2022-12-28T06:54:38;98060.56;;;9.56;52.42
52591;BME280;38483;42.620;25.394;2022-12-28T06:57:05;98046.44;;;9.69;51.71
52591;BME280;38483;42.620;25.394;2022-12-28T06:59:31;98072.50;;;9.62;52.66
52591;BME280;38483;42.620;25.394;2022-12-28T07:01:58;98071.22;;;9.78;52.73
52591;BME280;38483;42.620;25.394;2022-12-28T07:04:26;98082.47;;;9.75;52.54
52591;BME280;38483;42.620;25.394;2022-12-28T07:06:53;98063.94;;;9.60;52.89
52591;BME280;38483;42.620;25.394;2022-12-28T07:09:20;98065.66;;;9.59;52.80
52591;BME280;38483;42.620;25.394;2022-12-28T07:11:48;98085.50;;;9.25;54.24
52591;BME280;38483;42.620;25.394;2022-12-28T07:14:16;98082.31;;;9.14;54.05
52591;BME280;38483;42.620;25.394;2022-12-28T07:16:43;98087.44;;;9.16;54.58
52591;BME280;38483;42.620;25.394;2022-12-28T07:19:10;98073.44;;;9.24;54.42
52591;BME280;38483;42.620;25.394;2022-12-28T07:21:38;98094.88;;;9.29;54.91
52591;BME280;38483;42.620;25.394;2022-12-28T07:24:06;98082.09;;;9.23;54.44
52591;BME280;38483;42.620;25.394;2022-12-28T07:26:35;98085.75;;;9.13;55.08
52591;BME280;38483;42.620;25.394;2022-12-28T07:29:04;98099.47;;;9.17;55.46
52591;BME280;38483;42.620;25.394;2022-12-28T07:31:39;98105.94;;;9.34;56.00
52591;BME280;38483;42.620;25.394;2022-12-28T07:34:13;98098.63;;;9.51;55.38
52591;BME280;38483;42.620;25.394;2022-12-28T07:36:41;98099.28;;;9.59;55.27
52591;BME280;38483;42.620;25.394;2022-12-28T07:39:08;98102.31;;;9.41;55.63
52591;BME280;38483;42.620;25.394;2022-12-28T07:41:36;98110.75;;;9.49;55.26
52591;BME280;38483;42.620;25.394;2022-12-28T07:44:05;98110.75;;;9.49;55.44
52591;BME280;38483;42.620;25.394;2022-12-28T07:46:33;98110.44;;;9.61;53.94
52591;BME280;38483;42.620;25.394;2022-12-28T07:49:01;98120.13;;;9.53;53.59
52591;BME280;38483;42.620;25.394;2022-12-28T07:51:30;98108.66;;;9.63;52.18
52591;BME280;38483;42.620;25.394;2022-12-28T07:53:58;98123.97;;;9.72;50.60
52591;BME280;38483;42.620;25.394;2022-12-28T07:56:27;98121.28;;;9.75;49.26
52591;BME280;38483;42.620;25.394;2022-12-28T07:58:56;98114.72;;;9.62;48.73
52591;BME280;38483;42.620;25.394;2022-12-28T08:01:26;98135.13;;;9.74;47.96
52591;BME280;38483;42.620;25.394;2022-12-28T08:03:56;98143.84;;;9.69;48.07
52591;BME280;38483;42.620;25.394;2022-12-28T08:06:24;98146.56;;;9.64;48.16
52591;BME280;38483;42.620;25.394;2022-12-28T08:08:54;98146.63;;;9.61;48.27
52591;BME280;38483;42.620;25.394;2022-12-28T08:11:23;98154.25;;;9.67;49.26
52591;BME280;38483;42.620;25.394;2022-12-28T08:13:53;98150.97;;;9.61;49.72
52591;BME280;38483;42.620;25.394;2022-12-28T08:16:22;98138.81;;;9.29;50.52
52591;BME280;38483;42.620;25.394;2022-12-28T08:18:50;98149.81;;;9.36;51.33
52591;BME280;38483;42.620;25.394;2022-12-28T08:21:21;98148.25;;;9.30;52.11
52591;BME280;38483;42.620;25.394;2022-12-28T08:23:49;98158.91;;;9.53;52.15
52591;BME280;38483;42.620;25.394;2022-12-28T08:26:19;98169.16;;;9.58;52.29
52591;BME280;38483;42.620;25.394;2022-12-28T08:28:47;98172.25;;;9.72;52.51
52591;BME280;38483;42.620;25.394;2022-12-28T08:31:30;98174.22;;;9.96;52.36
52591;BME280;38483;42.620;25.394;2022-12-28T08:34:01;98176.41;;;10.13;52.89
52591;BME280;38483;42.620;25.394;2022-12-28T08:36:29;98158.59;;;10.33;52.11
52591;BME280;38483;42.620;25.394;2022-12-28T08:38:56;98159.69;;;10.26;52.37
52591;BME280;38483;42.620;25.394;2022-12-28T08:41:25;98168.72;;;10.10;53.47
52591;BME280;38483;42.620;25.394;2022-12-28T08:43:53;98181.38;;;10.22;53.67
52591;BME280;38483;42.620;25.394;2022-12-28T08:46:22;98179.22;;;10.37;53.60
52591;BME280;38483;42.620;25.394;2022-12-28T08:48:51;98178.69;;;10.57;53.02
52591;BME280;38483;42.620;25.394;2022-12-28T08:51:39;98186.59;;;10.51;53.11
52591;BME280;38483;42.620;25.394;2022-12-28T08:54:08;98182.16;;;10.56;53.13
52591;BME280;38483;42.620;25.394;2022-12-28T08:56:38;98176.22;;;10.51;53.47
52591;BME280;38483;42.620;25.394;2022-12-28T08:59:05;98175.41;;;10.50;53.12
52591;BME280;38483;42.620;25.394;2022-12-28T09:01:37;98166.22;;;10.39;53.87
52591;BME280;38483;42.620;25.394;2022-12-28T09:04:15;98167.28;;;10.62;53.58
52591;BME280;38483;42.620;25.394;2022-12-28T09:06:43;98170.06;;;10.56;52.97
52591;BME280;38483;42.620;25.394;2022-12-28T09:09:12;98167.16;;;10.67;53.00
52591;BME280;38483;42.620;25.394;2022-12-28T09:11:40;98159.13;;;10.76;52.97
52591;BME280;38483;42.620;25.394;2022-12-28T09:14:09;98173.50;;;10.88;52.62
52591;BME280;38483;42.620;25.394;2022-12-28T09:16:46;98175.53;;;10.77;52.92
52591;BME280;38483;42.620;25.394;2022-12-28T09:19:14;98176.91;;;10.88;52.48
52591;BME280;38483;42.620;25.394;2022-12-28T09:21:41;98176.19;;;10.83;49.69
52591;BME280;38483;42.620;25.394;2022-12-28T09:24:08;98143.53;;;10.47;49.29
52591;BME280;38483;42.620;25.394;2022-12-28T09:26:37;98169.59;;;10.73;48.94
52591;BME280;38483;42.620;25.394;2022-12-28T09:29:06;98157.97;;;10.57;48.32
52591;BME280;38483;42.620;25.394;2022-12-28T09:31:35;98162.34;;;10.55;47.93
52591;BME280;38483;42.620;25.394;2022-12-28T09:34:04;98160.56;;;10.55;47.49
52591;BME280;38483;42.620;25.394;2022-12-28T09:36:52;98162.16;;;10.61;47.23
52591;BME280;38483;42.620;25.394;2022-12-28T09:39:20;98164.03;;;10.56;48.55
52591;BME280;38483;42.620;25.394;2022-12-28T09:50:23;98168.47;;;10.51;50.62
52591;BME280;38483;42.620;25.394;2022-12-28T09:55:23;98171.53;;;10.34;51.48
52591;BME280;38483;42.620;25.394;2022-12-28T09:57:54;98159.88;;;10.50;51.73
52591;BME280;38483;42.620;25.394;2022-12-28T10:00:25;98154.72;;;10.49;52.41
52591;BME280;38483;42.620;25.394;2022-12-28T10:02:57;98155.09;;;10.66;52.44
52591;BME280;38483;42.620;25.394;2022-12-28T10:05:26;98151.56;;;10.69;52.31
52591;BME280;38483;42.620;25.394;2022-12-28T10:08:02;98148.44;;;10.57;52.96
52591;BME280;38483;42.620;25.394;2022-12-28T10:10:29;98148.22;;;10.65;53.23
52591;BME280;38483;42.620;25.394;2022-12-28T10:13:12;98124.44;;;10.51;54.24
52591;BME280;38483;42.620;25.394;2022-12-28T10:16:05;98142.09;;;10.68;54.31
52591;BME280;38483;42.620;25.394;2022-12-28T10:18:33;98141.28;;;10.65;54.81
52591;BME280;38483;42.620;25.394;2022-12-28T10:21:05;98142.91;;;10.39;55.69
52591;BME280;38483;42.620;25.394;2022-12-28T10:23:34;98140.78;;;10.22;56.05
52591;BME280;38483;42.620;25.394;2022-12-28T10:26:17;98153.69;;;10.24;56.55
52591;BME280;38483;42.620;25.394;2022-12-28T10:28:53;98156.19;;;10.27;56.97
52591;BME280;38483;42.620;25.394;2022-12-28T10:31:32;98144.47;;;10.14;57.36
52591;BME280;38483;42.620;25.394;2022-12-28T10:34:00;98145.19;;;10.19;57.75
52591;BME280;38483;42.620;25.394;2022-12-28T10:36:32;98154.41;;;10.29;57.80
52591;BME280;38483;42.620;25.394;2022-12-28T10:39:00;98145.28;;;10.16;57.96
52591;BME280;38483;42.620;25.394;2022-12-28T10:41:46;98142.97;;;10.04;58.74
52591;BME280;38483;42.620;25.394;2022-12-28T10:44:32;98148.88;;;10.09;58.20
52591;BME280;38483;42.620;25.394;2022-12-28T10:47:40;98144.69;;;10.05;59.52
52591;BME280;38483;42.620;25.394;2022-12-28T10:50:36;98145.66;;;10.01;60.20
52591;BME280;38483;42.620;25.394;2022-12-28T10:53:03;98146.56;;;9.98;60.34
52591;BME280;38483;42.620;25.394;2022-12-28T10:55:32;98121.13;;;9.81;60.10
52591;BME280;38483;42.620;25.394;2022-12-28T10:58:21;98147.31;;;10.02;60.82
52591;BME280;38483;42.620;25.394;2022-12-28T11:06:27;98142.31;;;9.96;60.98
52591;BME280;38483;42.620;25.394;2022-12-28T11:09:23;98134.16;;;9.77;61.50
52591;BME280;38483;42.620;25.394;2022-12-28T11:11:52;98142.19;;;9.68;62.10
52591;BME280;38483;42.620;25.394;2022-12-28T11:16:50;98147.50;;;9.60;62.79
52591;BME280;38483;42.620;25.394;2022-12-28T11:19:19;98140.25;;;9.76;62.80
52591;BME280;38483;42.620;25.394;2022-12-28T11:21:47;98113.22;;;9.54;62.68
52591;BME280;38483;42.620;25.394;2022-12-28T11:24:16;98135.13;;;9.73;63.64
52591;BME280;38483;42.620;25.394;2022-12-28T11:26:47;98128.13;;;9.78;63.51
52591;BME280;38483;42.620;25.394;2022-12-28T11:29:17;98123.47;;;9.57;64.12
52591;BME280;38483;42.620;25.394;2022-12-28T11:31:56;98109.56;;;9.61;64.02
52591;BME280;38483;42.620;25.394;2022-12-28T11:34:27;98134.47;;;9.66;63.84
52591;BME280;38483;42.620;25.394;2022-12-28T11:36:55;98134.88;;;9.48;64.95
52591;BME280;38483;42.620;25.394;2022-12-28T11:42:02;98124.78;;;9.38;65.53
52591;BME280;38483;42.620;25.394;2022-12-28T11:44:50;98139.78;;;9.24;66.06
52591;BME280;38483;42.620;25.394;2022-12-28T11:47:27;98142.84;;;9.41;66.02
52591;BME280;38483;42.620;25.394;2022-12-28T11:53:01;98144.25;;;9.54;65.52
52591;BME280;38483;42.620;25.394;2022-12-28T11:55:44;98148.31;;;9.62;65.42
52591;BME280;38483;42.620;25.394;2022-12-28T12:00:52;98144.81;;;9.30;66.17
52591;BME280;38483;42.620;25.394;2022-12-28T12:03:19;98152.59;;;9.28;66.81
52591;BME280;38483;42.620;25.394;2022-12-28T12:05:48;98141.25;;;9.35;67.01
52591;BME280;38483;42.620;25.394;2022-12-28T12:10:44;98132.75;;;9.30;66.73
52591;BME280;38483;42.620;25.394;2022-12-28T12:16:00;98136.59;;;9.49;66.52
52591;BME280;38483;42.620;25.394;2022-12-28T12:18:35;98145.03;;;9.57;66.66
52591;BME280;38483;42.620;25.394;2022-12-28T12:21:07;98146.63;;;9.61;66.87
52591;BME280;38483;42.620;25.394;2022-12-28T12:23:47;98144.09;;;9.60;66.90
52591;BME280;38483;42.620;25.394;2022-12-28T12:26:19;98149.06;;;9.32;67.89
52591;BME280;38483;42.620;25.394;2022-12-28T12:28:49;98148.19;;;9.32;68.80
52591;BME280;38483;42.620;25.394;2022-12-28T12:31:40;98145.69;;;8.92;69.95
52591;BME280;38483;42.620;25.394;2022-12-28T12:34:19;98131.94;;;8.90;70.48
52591;BME280;38483;42.620;25.394;2022-12-28T12:42:22;98132.13;;;8.81;70.97
52591;BME280;38483;42.620;25.394;2022-12-28T12:44:57;98142.09;;;8.58;73.39
52591;BME280;38483;42.620;25.394;2022-12-28T13:05:50;98115.97;;;7.84;69.94
52591;BME280;38483;42.620;25.394;2022-12-28T13:08:25;98119.94;;;8.00;70.53
52591;BME280;38483;42.620;25.394;2022-12-28T13:10:53;98116.47;;;8.03;69.60
52591;BME280;38483;42.620;25.394;2022-12-28T13:13:27;98115.50;;;8.08;70.07
52591;BME280;38483;42.620;25.394;2022-12-28T13:15:59;98117.09;;;8.15;69.56
52591;BME280;38483;42.620;25.394;2022-12-28T13:18:28;98111.91;;;8.17;68.88
52591;BME280;38483;42.620;25.394;2022-12-28T13:21:20;98110.81;;;8.30;69.13
52591;BME280;38483;42.620;25.394;2022-12-28T13:23:48;98108.69;;;8.50;68.86
52591;BME280;38483;42.620;25.394;2022-12-28T13:26:23;98100.97;;;8.49;68.03
52591;BME280;38483;42.620;25.394;2022-12-28T13:28:56;98111.09;;;8.58;67.90
52591;BME280;38483;42.620;25.394;2022-12-28T13:31:35;98115.63;;;8.48;67.87
52591;BME280;38483;42.620;25.394;2022-12-28T13:34:13;98108.97;;;8.35;67.89
52591;BME280;38483;42.620;25.394;2022-12-28T13:36:52;98096.25;;;8.24;68.26
52591;BME280;38483;42.620;25.394;2022-12-28T13:39:23;98107.53;;;8.20;69.37
52591;BME280;38483;42.620;25.394;2022-12-28T13:41:59;98100.84;;;8.10;70.08
52591;BME280;38483;42.620;25.394;2022-12-28T13:47:09;98100.50;;;8.29;70.83
52591;BME280;38483;42.620;25.394;2022-12-28T13:50:10;98079.13;;;8.22;70.51
52591;BME280;38483;42.620;25.394;2022-12-28T13:52:44;98096.00;;;8.40;70.21
52591;BME280;38483;42.620;25.394;2022-12-28T13:55:34;98086.19;;;8.55;70.26
52591;BME280;38483;42.620;25.394;2022-12-28T13:58:07;98077.06;;;8.41;69.97
52591;BME280;38483;42.620;25.394;2022-12-28T14:00:36;98089.06;;;8.42;69.50
52591;BME280;38483;42.620;25.394;2022-12-28T14:03:07;98087.38;;;8.41;69.95
52591;BME280;38483;42.620;25.394;2022-12-28T14:05:35;98077.25;;;8.32;69.82
52591;BME280;38483;42.620;25.394;2022-12-28T14:08:04;98088.00;;;8.52;69.31
52591;BME280;38483;42.620;25.394;2022-12-28T14:10:32;98081.63;;;8.68;69.06
52591;BME280;38483;42.620;25.394;2022-12-28T14:13:00;98098.00;;;8.67;68.31
52591;BME280;38483;42.620;25.394;2022-12-28T14:15:32;98086.91;;;8.63;67.98
52591;BME280;38483;42.620;25.394;2022-12-28T14:18:07;98095.81;;;8.49;69.79
52591;BME280;38483;42.620;25.394;2022-12-28T14:20:48;98092.84;;;8.67;68.70
52591;BME280;38483;42.620;25.394;2022-12-28T14:23:24;98089.53;;;8.98;68.95
52591;BME280;38483;42.620;25.394;2022-12-28T14:25:53;98096.38;;;9.02;68.27
52591;BME280;38483;42.620;25.394;2022-12-28T14:28:39;98081.78;;;8.98;67.87
52591;BME280;38483;42.620;25.394;2022-12-28T14:31:21;98093.53;;;9.12;68.72
52591;BME280;38483;42.620;25.394;2022-12-28T14:34:01;98097.75;;;9.16;68.13
52591;BME280;38483;42.620;25.394;2022-12-28T14:36:36;98102.78;;;9.23;67.60
52591;BME280;38483;42.620;25.394;2022-12-28T14:39:05;98092.50;;;9.20;66.96
52591;BME280;38483;42.620;25.394;2022-12-28T14:41:54;98094.47;;;9.09;67.69
52591;BME280;38483;42.620;25.394;2022-12-28T14:44:35;98098.56;;;9.18;68.36
52591;BME280;38483;42.620;25.394;2022-12-28T14:47:31;98108.81;;;9.22;68.03
52591;BME280;38483;42.620;25.394;2022-12-28T14:50:01;98100.13;;;9.25;68.31
52591;BME280;38483;42.620;25.394;2022-12-28T14:52:34;98103.44;;;9.31;67.77
52591;BME280;38483;42.620;25.394;2022-12-28T14:55:42;98097.50;;;9.26;67.77